sensor_id;sensor_type;location;lat;lon;timestamp;pressure;altitude;pressure_sealevel;temperature;humidity
20656;BME280;10487;53.320;8.672;2022-10-26T00:02:55;101364.31;;;9.03;59.78
20656;BME280;10487;53.320;8.672;2022-10-26T00:06:06;101354.75;;;8.99;59.74
20656;BME280;10487;53.320;8.672;2022-10-26T00:09:07;101355.03;;;8.95;59.71
20656;BME280;10487;53.320;8.672;2022-10-26T00:12:09;101352.53;;;8.92;59.70
20656;BME280;10487;53.320;8.672;2022-10-26T00:15:11;101342.16;;;8.87;59.66
20656;BME280;10487;53.320;8.672;2022-10-26T00:18:12;101347.69;;;8.84;59.71
20656;BME280;10487;53.320;8.672;2022-10-26T00:21:14;101342.53;;;8.81;59.79
20656;BME280;10487;53.320;8.672;2022-10-26T00:24:16;101349.81;;;8.78;59.79
20656;BME280;10487;53.320;8.672;2022-10-26T00:27:22;101349.16;;;8.74;59.76
20656;BME280;10487;53.320;8.672;2022-10-26T00:30:24;101366.03;;;8.73;59.66
20656;BME280;10487;53.320;8.672;2022-10-26T00:33:26;101356.75;;;8.64;59.80
20656;BME280;10487;53.320;8.672;2022-10-26T00:36:28;101352.66;;;8.59;59.76
20656;BME280;10487;53.320;8.672;2022-10-26T00:39:29;101353.00;;;8.53;59.74
20656;BME280;10487;53.320;8.672;2022-10-26T00:42:31;101352.38;;;8.48;59.81
20656;BME280;10487;53.320;8.672;2022-10-26T00:45:32;101356.25;;;8.42;59.71
20656;BME280;10487;53.320;8.672;2022-10-26T00:48:37;101355.72;;;8.36;59.53
20656;BME280;10487;53.320;8.672;2022-10-26T00:51:51;101363.25;;;8.28;59.83
20656;BME280;10487;53.320;8.672;2022-10-26T00:54:54;101367.03;;;8.24;59.77
20656;BME280;10487;53.320;8.672;2022-10-26T00:57:56;101364.53;;;8.21;59.95
20656;BME280;10487;53.320;8.672;2022-10-26T01:00:58;101361.09;;;8.19;59.98
20656;BME280;10487;53.320;8.672;2022-10-26T01:03:59;101369.94;;;8.19;59.80
20656;BME280;10487;53.320;8.672;2022-10-26T01:07:03;101369.94;;;8.19;59.98
20656;BME280;10487;53.320;8.672;2022-10-26T01:10:06;101370.81;;;8.20;59.77
20656;BME280;10487;53.320;8.672;2022-10-26T01:13:08;101370.00;;;8.18;59.80
20656;BME280;10487;53.320;8.672;2022-10-26T01:33:22;101358.09;;;8.09;59.91
20656;BME280;10487;53.320;8.672;2022-10-26T01:36:49;101347.47;;;8.09;60.07
20656;BME280;10487;53.320;8.672;2022-10-26T01:39:59;101344.88;;;8.08;60.03
20656;BME280;10487;53.320;8.672;2022-10-26T01:43:06;101345.03;;;8.05;59.93
20656;BME280;10487;53.320;8.672;2022-10-26T01:46:09;101349.53;;;8.02;60.08
20656;BME280;10487;53.320;8.672;2022-10-26T01:49:14;101353.16;;;8.02;59.90
20656;BME280;10487;53.320;8.672;2022-10-26T01:52:18;101348.84;;;7.99;60.14
20656;BME280;10487;53.320;8.672;2022-10-26T01:58:55;101332.97;;;7.97;59.89
20656;BME280;10487;53.320;8.672;2022-10-26T02:12:40;101320.13;;;7.90;59.96
20656;BME280;10487;53.320;8.672;2022-10-26T02:15:53;101316.59;;;7.89;60.29
20656;BME280;10487;53.320;8.672;2022-10-26T02:19:04;101321.16;;;7.87;60.00
20656;BME280;10487;53.320;8.672;2022-10-26T02:22:15;101319.50;;;7.85;59.99
20656;BME280;10487;53.320;8.672;2022-10-26T02:25:31;101327.47;;;7.85;60.03
20656;BME280;10487;53.320;8.672;2022-10-26T02:28:36;101316.06;;;7.83;60.31
20656;BME280;10487;53.320;8.672;2022-10-26T02:31:40;101309.09;;;7.80;60.24
20656;BME280;10487;53.320;8.672;2022-10-26T02:34:44;101302.25;;;7.76;60.03
20656;BME280;10487;53.320;8.672;2022-10-26T02:37:50;101303.41;;;7.71;60.22
20656;BME280;10487;53.320;8.672;2022-10-26T02:40:53;101298.34;;;7.66;60.27
20656;BME280;10487;53.320;8.672;2022-10-26T02:44:23;101295.00;;;7.63;60.29
20656;BME280;10487;53.320;8.672;2022-10-26T02:47:23;101297.06;;;7.58;60.18
20656;BME280;10487;53.320;8.672;2022-10-26T02:50:32;101298.25;;;7.52;60.15
20656;BME280;10487;53.320;8.672;2022-10-26T02:53:53;101304.63;;;7.48;60.29
20656;BME280;10487;53.320;8.672;2022-10-26T02:57:00;101291.69;;;7.42;60.25
20656;BME280;10487;53.320;8.672;2022-10-26T03:00:12;101288.47;;;7.35;60.30
20656;BME280;10487;53.320;8.672;2022-10-26T03:03:15;101290.59;;;7.29;60.38
20656;BME280;10487;53.320;8.672;2022-10-26T03:06:21;101289.03;;;7.25;60.43
20656;BME280;10487;53.320;8.672;2022-10-26T03:09:24;101284.91;;;7.19;60.43
20656;BME280;10487;53.320;8.672;2022-10-26T03:12:26;101286.06;;;7.14;60.41
20656;BME280;10487;53.320;8.672;2022-10-26T03:15:27;101277.47;;;7.09;60.46
20656;BME280;10487;53.320;8.672;2022-10-26T03:18:29;101285.75;;;7.03;60.49
20656;BME280;10487;53.320;8.672;2022-10-26T03:21:30;101285.97;;;6.98;60.45
20656;BME280;10487;53.320;8.672;2022-10-26T03:24:32;101285.28;;;6.95;60.49
20656;BME280;10487;53.320;8.672;2022-10-26T03:27:33;101284.56;;;6.91;60.66
20656;BME280;10487;53.320;8.672;2022-10-26T03:30:36;101274.81;;;6.92;60.55
20656;BME280;10487;53.320;8.672;2022-10-26T03:33:38;101282.88;;;6.90;60.66
20656;BME280;10487;53.320;8.672;2022-10-26T03:36:39;101282.16;;;6.87;60.54
20656;BME280;10487;53.320;8.672;2022-10-26T03:39:41;101284.94;;;6.84;60.72
20656;BME280;10487;53.320;8.672;2022-10-26T03:42:43;101281.28;;;6.86;60.69
20656;BME280;10487;53.320;8.672;2022-10-26T03:45:44;101282.28;;;6.84;60.75
20656;BME280;10487;53.320;8.672;2022-10-26T03:48:46;101280.50;;;6.84;60.86
20656;BME280;10487;53.320;8.672;2022-10-26T03:51:47;101284.94;;;6.84;60.89
20656;BME280;10487;53.320;8.672;2022-10-26T03:54:50;101275.44;;;6.80;60.69
20656;BME280;10487;53.320;8.672;2022-10-26T03:57:52;101271.13;;;6.77;60.76
20656;BME280;10487;53.320;8.672;2022-10-26T04:00:53;101271.28;;;6.74;60.79
20656;BME280;10487;53.320;8.672;2022-10-26T04:03:55;101282.91;;;6.72;60.88
20656;BME280;10487;53.320;8.672;2022-10-26T04:06:56;101284.88;;;6.68;60.61
20656;BME280;10487;53.320;8.672;2022-10-26T04:09:58;101280.53;;;6.65;60.91
20656;BME280;10487;53.320;8.672;2022-10-26T04:12:59;101284.03;;;6.66;60.84
20656;BME280;10487;53.320;8.672;2022-10-26T04:16:01;101288.41;;;6.67;60.89
20656;BME280;10487;53.320;8.672;2022-10-26T04:19:03;101285.84;;;6.65;60.89
20656;BME280;10487;53.320;8.672;2022-10-26T04:22:04;101284.97;;;6.65;60.79
20656;BME280;10487;53.320;8.672;2022-10-26T04:25:06;101287.63;;;6.65;60.74
20656;BME280;10487;53.320;8.672;2022-10-26T04:28:09;101286.75;;;6.64;60.93
20656;BME280;10487;53.320;8.672;2022-10-26T04:31:12;101285.03;;;6.63;61.01
20656;BME280;10487;53.320;8.672;2022-10-26T04:34:13;101294.63;;;6.66;60.97
20656;BME280;10487;53.320;8.672;2022-10-26T04:37:15;101291.16;;;6.65;60.93
20656;BME280;10487;53.320;8.672;2022-10-26T04:40:16;101286.84;;;6.63;61.04
20656;BME280;10487;53.320;8.672;2022-10-26T04:43:18;101285.25;;;6.59;60.85
20656;BME280;10487;53.320;8.672;2022-10-26T04:46:19;101292.38;;;6.58;61.05
20656;BME280;10487;53.320;8.672;2022-10-26T04:49:21;101286.22;;;6.58;61.05
20656;BME280;10487;53.320;8.672;2022-10-26T04:52:22;101286.13;;;6.59;61.20
20656;BME280;10487;53.320;8.672;2022-10-26T04:55:24;101286.91;;;6.61;61.10
20656;BME280;10487;53.320;8.672;2022-10-26T04:58:29;101285.97;;;6.62;61.04
20656;BME280;10487;53.320;8.672;2022-10-26T05:01:31;101282.56;;;6.60;60.96
20656;BME280;10487;53.320;8.672;2022-10-26T05:04:33;101284.41;;;6.58;61.06
20656;BME280;10487;53.320;8.672;2022-10-26T05:07:34;101288.91;;;6.56;61.07
20656;BME280;10487;53.320;8.672;2022-10-26T05:10:36;101285.44;;;6.56;61.13
20656;BME280;10487;53.320;8.672;2022-10-26T05:13:37;101277.63;;;6.53;61.18
20656;BME280;10487;53.320;8.672;2022-10-26T05:16:39;101278.47;;;6.53;61.11
20656;BME280;10487;53.320;8.672;2022-10-26T05:19:40;101278.63;;;6.50;61.25
20656;BME280;10487;53.320;8.672;2022-10-26T05:22:42;101270.72;;;6.49;61.09
20656;BME280;10487;53.320;8.672;2022-10-26T05:25:44;101272.53;;;6.48;61.16
20656;BME280;10487;53.320;8.672;2022-10-26T05:28:46;101271.72;;;6.46;61.23
20656;BME280;10487;53.320;8.672;2022-10-26T05:31:47;101268.31;;;6.44;61.19
20656;BME280;10487;53.320;8.672;2022-10-26T05:34:49;101270.25;;;6.41;61.25
20656;BME280;10487;53.320;8.672;2022-10-26T05:37:51;101268.53;;;6.40;61.29
20656;BME280;10487;53.320;8.672;2022-10-26T05:40:53;101267.66;;;6.39;61.29
20656;BME280;10487;53.320;8.672;2022-10-26T05:43:55;101265.00;;;6.39;61.30
20656;BME280;10487;53.320;8.672;2022-10-26T05:46:57;101266.88;;;6.37;61.21
20656;BME280;10487;53.320;8.672;2022-10-26T05:49:58;101251.97;;;6.35;61.17
20656;BME280;10487;53.320;8.672;2022-10-26T05:53:00;101267.03;;;6.34;61.27
20656;BME280;10487;53.320;8.672;2022-10-26T05:56:02;101258.28;;;6.32;61.33
20656;BME280;10487;53.320;8.672;2022-10-26T05:59:13;101272.47;;;6.31;61.25
20656;BME280;10487;53.320;8.672;2022-10-26T06:02:38;101276.97;;;6.29;61.34
20656;BME280;10487;53.320;8.672;2022-10-26T06:05:54;101276.97;;;6.29;61.35
20656;BME280;10487;53.320;8.672;2022-10-26T06:08:56;101279.63;;;6.29;61.41
20656;BME280;10487;53.320;8.672;2022-10-26T06:11:57;101282.22;;;6.31;61.40
20656;BME280;10487;53.320;8.672;2022-10-26T06:14:59;101284.78;;;6.32;61.44
20656;BME280;10487;53.320;8.672;2022-10-26T06:18:12;101286.53;;;6.33;61.45
20656;BME280;10487;53.320;8.672;2022-10-26T06:25:08;101284.88;;;6.31;61.46
20656;BME280;10487;53.320;8.672;2022-10-26T06:31:17;101287.91;;;6.23;61.50
20656;BME280;10487;53.320;8.672;2022-10-26T06:34:32;101287.94;;;6.22;61.60
20656;BME280;10487;53.320;8.672;2022-10-26T06:37:35;101290.59;;;6.22;61.51
20656;BME280;10487;53.320;8.672;2022-10-26T06:40:39;101287.13;;;6.21;61.49
20656;BME280;10487;53.320;8.672;2022-10-26T06:43:43;101289.75;;;6.21;61.50
20656;BME280;10487;53.320;8.672;2022-10-26T06:46:47;101288.75;;;6.24;61.49
20656;BME280;10487;53.320;8.672;2022-10-26T06:50:00;101296.25;;;6.33;61.91
20656;BME280;10487;53.320;8.672;2022-10-26T06:56:42;101305.56;;;6.41;61.61
20656;BME280;10487;53.320;8.672;2022-10-26T06:59:55;101308.94;;;6.45;61.57
20656;BME280;10487;53.320;8.672;2022-10-26T07:02:58;101306.16;;;6.48;61.68
20656;BME280;10487;53.320;8.672;2022-10-26T07:06:00;101306.69;;;6.54;61.64
20656;BME280;10487;53.320;8.672;2022-10-26T07:09:02;101318.91;;;6.58;61.52
20656;BME280;10487;53.320;8.672;2022-10-26T07:12:03;101311.53;;;6.63;61.62
20656;BME280;10487;53.320;8.672;2022-10-26T07:15:06;101320.13;;;6.70;61.64
20656;BME280;10487;53.320;8.672;2022-10-26T07:18:09;101316.47;;;6.73;61.53
20656;BME280;10487;53.320;8.672;2022-10-26T07:21:11;101323.31;;;6.77;61.49
20656;BME280;10487;53.320;8.672;2022-10-26T07:24:13;101323.94;;;6.82;61.56
20656;BME280;10487;53.320;8.672;2022-10-26T07:27:15;101322.91;;;6.86;61.61
20656;BME280;10487;53.320;8.672;2022-10-26T07:30:17;101327.09;;;6.90;61.53
20656;BME280;10487;53.320;8.672;2022-10-26T07:33:18;101329.59;;;6.93;61.75
20656;BME280;10487;53.320;8.672;2022-10-26T07:36:20;101331.94;;;6.99;61.58
20656;BME280;10487;53.320;8.672;2022-10-26T07:39:22;101325.56;;;7.03;61.76
20656;BME280;10487;53.320;8.672;2022-10-26T07:42:24;101324.47;;;7.07;61.52
20656;BME280;10487;53.320;8.672;2022-10-26T07:45:26;101320.72;;;7.11;61.49
20656;BME280;10487;53.320;8.672;2022-10-26T07:48:28;101317.84;;;7.15;61.71
20656;BME280;10487;53.320;8.672;2022-10-26T07:51:30;101312.38;;;7.18;61.65
20656;BME280;10487;53.320;8.672;2022-10-26T07:54:31;101310.53;;;7.20;61.60
20656;BME280;10487;53.320;8.672;2022-10-26T07:57:33;101306.84;;;7.23;61.73
20656;BME280;10487;53.320;8.672;2022-10-26T08:00:35;101307.63;;;7.25;61.90
20656;BME280;10487;53.320;8.672;2022-10-26T08:03:36;101305.75;;;7.27;61.63
20656;BME280;10487;53.320;8.672;2022-10-26T08:06:38;101298.00;;;7.40;62.19
20656;BME280;10487;53.320;8.672;2022-10-26T08:09:40;101295.63;;;7.51;61.91
20656;BME280;10487;53.320;8.672;2022-10-26T08:12:42;101291.97;;;7.53;61.74
20656;BME280;10487;53.320;8.672;2022-10-26T08:15:44;101295.50;;;7.54;61.66
20656;BME280;10487;53.320;8.672;2022-10-26T08:18:51;101297.22;;;7.55;61.75
20656;BME280;10487;53.320;8.672;2022-10-26T08:21:53;101296.19;;;7.57;61.87
20656;BME280;10487;53.320;8.672;2022-10-26T08:24:55;101294.31;;;7.59;61.68
20656;BME280;10487;53.320;8.672;2022-10-26T08:28:00;101291.50;;;7.62;61.89
20656;BME280;10487;53.320;8.672;2022-10-26T08:31:03;101294.16;;;7.62;61.94
20656;BME280;10487;53.320;8.672;2022-10-26T08:34:04;101293.97;;;7.65;61.81
20656;BME280;10487;53.320;8.672;2022-10-26T08:37:06;101295.56;;;7.69;62.01
20656;BME280;10487;53.320;8.672;2022-10-26T08:40:10;101299.69;;;7.75;61.96
20656;BME280;10487;53.320;8.672;2022-10-26T08:43:32;101308.19;;;7.81;61.93
20656;BME280;10487;53.320;8.672;2022-10-26T08:46:41;101303.56;;;7.85;61.93
20656;BME280;10487;53.320;8.672;2022-10-26T08:53:11;101301.88;;;7.99;62.00
20656;BME280;10487;53.320;8.672;2022-10-26T08:56:17;101296.09;;;8.09;61.95
20656;BME280;10487;53.320;8.672;2022-10-26T08:59:39;101297.31;;;8.19;61.96
20656;BME280;10487;53.320;8.672;2022-10-26T09:02:42;101291.47;;;8.28;61.97
20656;BME280;10487;53.320;8.672;2022-10-26T09:08:56;101286.44;;;8.54;62.10
20656;BME280;10487;53.320;8.672;2022-10-26T09:12:06;101285.63;;;8.68;61.99
20656;BME280;10487;53.320;8.672;2022-10-26T09:15:21;101291.00;;;8.82;61.95
20656;BME280;10487;53.320;8.672;2022-10-26T09:18:48;101290.13;;;8.97;61.84
20656;BME280;10487;53.320;8.672;2022-10-26T09:22:13;101285.97;;;9.07;61.83
20656;BME280;10487;53.320;8.672;2022-10-26T09:25:22;101291.81;;;9.14;61.94
20656;BME280;10487;53.320;8.672;2022-10-26T09:28:26;101290.78;;;9.16;61.80
20656;BME280;10487;53.320;8.672;2022-10-26T09:31:29;101287.16;;;9.17;61.85
20656;BME280;10487;53.320;8.672;2022-10-26T09:34:38;101291.53;;;9.18;61.76
20656;BME280;10487;53.320;8.672;2022-10-26T09:38:07;101295.13;;;9.17;61.86
20656;BME280;10487;53.320;8.672;2022-10-26T09:41:30;101293.22;;;9.19;61.90
20656;BME280;10487;53.320;8.672;2022-10-26T09:44:41;101290.56;;;9.19;61.82
20656;BME280;10487;53.320;8.672;2022-10-26T09:47:49;101290.50;;;9.21;61.94
20656;BME280;10487;53.320;8.672;2022-10-26T09:50:53;101282.31;;;9.24;61.97
20656;BME280;10487;53.320;8.672;2022-10-26T09:54:13;101281.09;;;9.29;62.07
20656;BME280;10487;53.320;8.672;2022-10-26T09:57:18;101284.28;;;9.36;62.01
20656;BME280;10487;53.320;8.672;2022-10-26T10:00:22;101280.97;;;9.47;61.89
20656;BME280;10487;53.320;8.672;2022-10-26T10:03:27;101280.03;;;9.62;61.99
20656;BME280;10487;53.320;8.672;2022-10-26T10:06:29;101273.88;;;9.75;61.88
20656;BME280;10487;53.320;8.672;2022-10-26T10:09:31;101279.06;;;9.91;61.73
20656;BME280;10487;53.320;8.672;2022-10-26T10:12:32;101281.56;;;10.08;61.65
20656;BME280;10487;53.320;8.672;2022-10-26T10:15:34;101282.28;;;10.24;61.73
20656;BME280;10487;53.320;8.672;2022-10-26T10:18:36;101286.63;;;10.53;61.76
20656;BME280;10487;53.320;8.672;2022-10-26T10:21:48;101286.88;;;10.77;61.79
20656;BME280;10487;53.320;8.672;2022-10-26T10:24:58;101288.41;;;10.94;61.69
20656;BME280;10487;53.320;8.672;2022-10-26T10:28:01;101291.00;;;11.08;61.45
20656;BME280;10487;53.320;8.672;2022-10-26T10:31:09;101297.13;;;11.23;61.58
20656;BME280;10487;53.320;8.672;2022-10-26T10:34:20;101292.56;;;11.37;61.58
20656;BME280;10487;53.320;8.672;2022-10-26T10:37:32;101295.81;;;11.55;61.61
20656;BME280;10487;53.320;8.672;2022-10-26T10:40:35;101294.75;;;11.70;61.26
20656;BME280;10487;53.320;8.672;2022-10-26T10:43:42;101297.88;;;11.89;61.27
20656;BME280;10487;53.320;8.672;2022-10-26T10:46:45;101299.13;;;12.09;61.63
20656;BME280;10487;53.320;8.672;2022-10-26T10:49:56;101300.47;;;12.27;61.21
20656;BME280;10487;53.320;8.672;2022-10-26T10:56:52;101314.50;;;12.67;61.30
20656;BME280;10487;53.320;8.672;2022-10-26T11:06:30;101323.91;;;13.20;61.16
20656;BME280;10487;53.320;8.672;2022-10-26T11:09:35;101329.22;;;13.43;61.09
20656;BME280;10487;53.320;8.672;2022-10-26T11:12:48;101318.72;;;13.64;60.91
20656;BME280;10487;53.320;8.672;2022-10-26T11:15:57;101318.16;;;13.83;61.12
20656;BME280;10487;53.320;8.672;2022-10-26T11:22:17;101326.09;;;14.17;60.86
20656;BME280;10487;53.320;8.672;2022-10-26T11:26:03;101344.41;;;14.34;60.63
20656;BME280;10487;53.320;8.672;2022-10-26T11:29:16;101340.25;;;14.64;60.70
20656;BME280;10487;53.320;8.672;2022-10-26T11:32:27;101330.44;;;14.74;60.63
20656;BME280;10487;53.320;8.672;2022-10-26T11:38:43;101326.84;;;14.95;60.60
20656;BME280;10487;53.320;8.672;2022-10-26T11:42:02;101328.75;;;15.04;60.48
20656;BME280;10487;53.320;8.672;2022-10-26T11:45:18;101325.31;;;15.14;60.51
20656;BME280;10487;53.320;8.672;2022-10-26T11:48:43;101326.28;;;15.24;60.44
20656;BME280;10487;53.320;8.672;2022-10-26T11:55:04;101318.75;;;15.38;60.28
20656;BME280;10487;53.320;8.672;2022-10-26T11:58:10;101327.41;;;15.42;60.22
20656;BME280;10487;53.320;8.672;2022-10-26T12:01:14;101335.75;;;15.39;59.99
20656;BME280;10487;53.320;8.672;2022-10-26T12:04:19;101333.81;;;15.30;60.08
20656;BME280;10487;53.320;8.672;2022-10-26T12:07:35;101333.97;;;15.17;60.34
20656;BME280;10487;53.320;8.672;2022-10-26T12:10:40;101343.78;;;15.07;60.41
20656;BME280;10487;53.320;8.672;2022-10-26T12:13:50;101345.66;;;14.95;60.21
20656;BME280;10487;53.320;8.672;2022-10-26T12:17:06;101341.63;;;14.90;60.35
20656;BME280;10487;53.320;8.672;2022-10-26T12:27:03;101344.16;;;14.60;60.48
20656;BME280;10487;53.320;8.672;2022-10-26T12:33:29;101336.31;;;14.68;60.56
20656;BME280;10487;53.320;8.672;2022-10-26T12:36:47;101322.25;;;14.75;60.47
20656;BME280;10487;53.320;8.672;2022-10-26T12:39:48;101333.97;;;14.85;60.38
20656;BME280;10487;53.320;8.672;2022-10-26T12:42:50;101328.19;;;14.90;60.17
20656;BME280;10487;53.320;8.672;2022-10-26T12:56:03;101340.69;;;15.23;60.17
20656;BME280;10487;53.320;8.672;2022-10-26T13:09:23;101338.63;;;15.26;59.80
20656;BME280;10487;53.320;8.672;2022-10-26T13:12:26;101338.88;;;15.23;59.84
20656;BME280;10487;53.320;8.672;2022-10-26T13:19:00;101350.16;;;15.06;59.87
20656;BME280;10487;53.320;8.672;2022-10-26T13:22:02;101341.47;;;15.02;59.95
20656;BME280;10487;53.320;8.672;2022-10-26T13:25:04;101347.84;;;15.01;60.02
20656;BME280;10487;53.320;8.672;2022-10-26T13:28:30;101358.22;;;15.06;60.13
20656;BME280;10487;53.320;8.672;2022-10-26T13:34:41;101351.09;;;15.16;59.92
20656;BME280;10487;53.320;8.672;2022-10-26T13:37:46;101347.28;;;15.19;59.91
20656;BME280;10487;53.320;8.672;2022-10-26T13:40:52;101341.56;;;15.23;59.92
20656;BME280;10487;53.320;8.672;2022-10-26T13:44:03;101342.16;;;15.27;59.78
20656;BME280;10487;53.320;8.672;2022-10-26T13:47:13;101342.03;;;15.28;59.51
20656;BME280;10487;53.320;8.672;2022-10-26T13:50:24;101342.75;;;15.30;59.60
20656;BME280;10487;53.320;8.672;2022-10-26T13:53:47;101350.09;;;15.28;59.79
20656;BME280;10487;53.320;8.672;2022-10-26T13:57:09;101341.06;;;15.29;59.68
20656;BME280;10487;53.320;8.672;2022-10-26T14:00:21;101353.75;;;15.27;59.65
20656;BME280;10487;53.320;8.672;2022-10-26T14:03:25;101351.06;;;15.27;59.64
20656;BME280;10487;53.320;8.672;2022-10-26T14:06:28;101361.00;;;15.27;59.75
20656;BME280;10487;53.320;8.672;2022-10-26T14:09:32;101364.50;;;15.27;59.75
20656;BME280;10487;53.320;8.672;2022-10-26T14:12:34;101368.91;;;15.28;59.84
20656;BME280;10487;53.320;8.672;2022-10-26T14:15:35;101373.56;;;15.26;59.69
20656;BME280;10487;53.320;8.672;2022-10-26T14:18:37;101365.50;;;15.26;59.77
20656;BME280;10487;53.320;8.672;2022-10-26T14:21:39;101373.56;;;15.26;59.57
20656;BME280;10487;53.320;8.672;2022-10-26T14:24:58;101378.94;;;15.26;59.62
20656;BME280;10487;53.320;8.672;2022-10-26T14:28:00;101375.41;;;15.26;59.66
20656;BME280;10487;53.320;8.672;2022-10-26T14:31:18;101377.94;;;15.27;59.77
20656;BME280;10487;53.320;8.672;2022-10-26T14:34:21;101378.69;;;15.29;59.85
20656;BME280;10487;53.320;8.672;2022-10-26T14:40:34;101380.47;;;15.40;59.67
20656;BME280;10487;53.320;8.672;2022-10-26T14:43:36;101381.19;;;15.42;59.65
20656;BME280;10487;53.320;8.672;2022-10-26T14:46:42;101371.28;;;15.42;59.48
20656;BME280;10487;53.320;8.672;2022-10-26T14:49:44;101365.19;;;15.40;59.56
20656;BME280;10487;53.320;8.672;2022-10-26T14:52:52;101373.41;;;15.39;59.70
20656;BME280;10487;53.320;8.672;2022-10-26T14:55:57;101372.53;;;15.38;59.64
20656;BME280;10487;53.320;8.672;2022-10-26T14:59:19;101379.59;;;15.39;59.63
20656;BME280;10487;53.320;8.672;2022-10-26T15:02:21;101368.84;;;15.39;59.84
20656;BME280;10487;53.320;8.672;2022-10-26T15:05:27;101376.66;;;15.42;59.74
20656;BME280;10487;53.320;8.672;2022-10-26T15:08:40;101374.69;;;15.44;59.66
20656;BME280;10487;53.320;8.672;2022-10-26T15:11:56;101386.19;;;15.46;59.61
20656;BME280;10487;53.320;8.672;2022-10-26T15:18:35;101385.56;;;15.54;59.51
20656;BME280;10487;53.320;8.672;2022-10-26T15:21:47;101388.34;;;15.52;59.44
20656;BME280;10487;53.320;8.672;2022-10-26T15:24:52;101385.66;;;15.52;59.65
20656;BME280;10487;53.320;8.672;2022-10-26T15:28:08;101396.66;;;15.49;59.53
20656;BME280;10487;53.320;8.672;2022-10-26T15:34:13;101400.75;;;15.44;59.73
20656;BME280;10487;53.320;8.672;2022-10-26T15:37:14;101408.06;;;15.42;59.48
20656;BME280;10487;53.320;8.672;2022-10-26T15:40:17;101417.88;;;15.43;59.56
20656;BME280;10487;53.320;8.672;2022-10-26T15:43:19;101429.00;;;15.38;59.51
20656;BME280;10487;53.320;8.672;2022-10-26T15:46:21;101422.03;;;15.36;59.42
20656;BME280;10487;53.320;8.672;2022-10-26T15:49:22;101424.13;;;15.32;59.56
20656;BME280;10487;53.320;8.672;2022-10-26T15:52:24;101428.78;;;15.30;59.61
20656;BME280;10487;53.320;8.672;2022-10-26T15:55:26;101433.56;;;15.27;59.52
20656;BME280;10487;53.320;8.672;2022-10-26T15:58:30;101427.69;;;15.22;59.47
20656;BME280;10487;53.320;8.672;2022-10-26T16:01:32;101433.56;;;15.16;59.50
20656;BME280;10487;53.320;8.672;2022-10-26T16:04:33;101435.16;;;15.07;59.69
20656;BME280;10487;53.320;8.672;2022-10-26T16:07:35;101437.34;;;15.02;59.56
20656;BME280;10487;53.320;8.672;2022-10-26T16:10:37;101438.13;;;14.93;59.58
20656;BME280;10487;53.320;8.672;2022-10-26T16:13:39;101436.28;;;14.82;59.60
20656;BME280;10487;53.320;8.672;2022-10-26T16:16:41;101454.03;;;14.74;59.72
20656;BME280;10487;53.320;8.672;2022-10-26T16:19:42;101454.63;;;14.66;59.87
20656;BME280;10487;53.320;8.672;2022-10-26T16:22:46;101456.94;;;14.71;59.52
20656;BME280;10487;53.320;8.672;2022-10-26T16:25:48;101465.84;;;14.60;59.77
20656;BME280;10487;53.320;8.672;2022-10-26T16:28:50;101470.00;;;14.53;59.62
20656;BME280;10487;53.320;8.672;2022-10-26T16:31:52;101476.69;;;14.48;59.75
20656;BME280;10487;53.320;8.672;2022-10-26T16:34:53;101476.34;;;14.41;59.63
20656;BME280;10487;53.320;8.672;2022-10-26T16:37:55;101477.63;;;14.35;59.64
20656;BME280;10487;53.320;8.672;2022-10-26T16:41:15;101483.59;;;14.28;59.64
20656;BME280;10487;53.320;8.672;2022-10-26T16:44:17;101481.41;;;14.22;59.46
20656;BME280;10487;53.320;8.672;2022-10-26T16:47:19;101497.97;;;14.16;59.60
20656;BME280;10487;53.320;8.672;2022-10-26T16:50:25;101503.56;;;14.13;59.47
20656;BME280;10487;53.320;8.672;2022-10-26T16:53:27;101501.97;;;14.10;59.64
20656;BME280;10487;53.320;8.672;2022-10-26T16:56:29;101511.97;;;14.08;59.61
20656;BME280;10487;53.320;8.672;2022-10-26T16:59:31;101519.28;;;14.06;59.42
20656;BME280;10487;53.320;8.672;2022-10-26T17:02:33;101512.19;;;14.05;59.58
20656;BME280;10487;53.320;8.672;2022-10-26T17:05:34;101516.97;;;14.02;59.50
20656;BME280;10487;53.320;8.672;2022-10-26T17:08:36;101524.28;;;14.00;59.19
20656;BME280;10487;53.320;8.672;2022-10-26T17:11:38;101526.22;;;13.98;59.21
20656;BME280;10487;53.320;8.672;2022-10-26T17:14:39;101538.03;;;13.95;59.56
20656;BME280;10487;53.320;8.672;2022-10-26T17:17:41;101537.28;;;13.93;59.33
20656;BME280;10487;53.320;8.672;2022-10-26T17:20:50;101544.50;;;13.93;59.36
20656;BME280;10487;53.320;8.672;2022-10-26T17:23:52;101552.88;;;13.88;59.21
20656;BME280;10487;53.320;8.672;2022-10-26T17:26:53;101556.53;;;13.87;59.44
20656;BME280;10487;53.320;8.672;2022-10-26T17:29:55;101555.81;;;13.85;59.19
20656;BME280;10487;53.320;8.672;2022-10-26T17:32:56;101556.97;;;13.81;59.05
20656;BME280;10487;53.320;8.672;2022-10-26T17:35:58;101571.59;;;13.77;59.20
20656;BME280;10487;53.320;8.672;2022-10-26T17:39:00;101592.53;;;13.72;59.21
20656;BME280;10487;53.320;8.672;2022-10-26T17:42:02;101595.56;;;13.67;59.09
20656;BME280;10487;53.320;8.672;2022-10-26T17:45:04;101595.91;;;13.63;59.00
20656;BME280;10487;53.320;8.672;2022-10-26T17:48:05;101603.19;;;13.61;59.33
20656;BME280;10487;53.320;8.672;2022-10-26T17:51:13;101611.34;;;13.59;59.12
20656;BME280;10487;53.320;8.672;2022-10-26T17:54:15;101614.16;;;13.58;59.16
20656;BME280;10487;53.320;8.672;2022-10-26T17:57:22;101619.38;;;13.59;59.08
20656;BME280;10487;53.320;8.672;2022-10-26T18:00:24;101624.75;;;13.59;58.96
20656;BME280;10487;53.320;8.672;2022-10-26T18:03:25;101623.81;;;13.60;58.97
20656;BME280;10487;53.320;8.672;2022-10-26T18:06:27;101630.00;;;13.61;59.03
20656;BME280;10487;53.320;8.672;2022-10-26T18:09:28;101629.25;;;13.59;58.99
20656;BME280;10487;53.320;8.672;2022-10-26T18:12:30;101633.88;;;13.57;59.00